Impacts METAR Board
IDs:

KGYB - Giddings/Lee Cnty, TX, US

Updated at: 0500 UTC 19 Aug 2019
Potential Impact None Slight Moderate High
Time 18/17Z 18/18Z 18/19Z 18/20Z 18/21Z 18/22Z 18/23Z 19/00Z 19/01Z 19/02Z 19/03Z 19/04Z 19/05Z
Temp96 99 100 102 102 103 104 101 97 94 91 88 86
Dewpt74 70 69 68 68 68 68 70 72 73 75 75 77
Altim29.93 29.92 29.90 29.89 29.87 29.85 29.84 29.85 29.86 29.88 29.90 29.93 29.94
VIS10 10 10 10 10 10 10 10 10 10 10 10 10
CIG-- -- -- -- -- -- -- -- -- -- -- -- --
CoverSCTSCTSCTSCTSCTCLRSCTSCTSCTCLRCLRCLRCLR
FltCatVFRVFRVFRVFRVFRVFRVFRVFRVFRVFRVFRVFRVFR
WX--------------------------
WDir200190210160200190160160160170170170180
WSpd11 10 6 6 7 3 9 9 9 10 8 7 4
WGst-- 17 17 14 -- -- 16 16 16 17 15 -- --
Raw hourly METARs
KGYB 181655Z AUTO 20011KT 10SM SCT041 35/23 A2993 RMK AO2 T03540232
KGYB 181755Z AUTO 19010G17KT 170V250 10SM SCT050 37/21 A2992 RMK AO2 T03710213 10371 20267
KGYB 181855Z AUTO 21006G17KT 10SM SCT055 38/21 A2990 RMK AO2 T03770207
KGYB 181955Z AUTO 16006G14KT 10SM SCT065 39/20 A2989 RMK AO2 T03870199
KGYB 182055Z AUTO 20007KT 10SM SCT070 39/20 A2987 RMK AO2 T03910200
KGYB 182155Z AUTO 19003KT 10SM CLR 40/20 A2985 RMK AO2 T03950200
KGYB 182255Z AUTO 16009G16KT 120V180 10SM SCT075 SCT085 40/20 A2984 RMK AO2 T03990200
KGYB 182355Z AUTO 16009G16KT 10SM SCT070 38/21 A2985 RMK AO2 T03810212 10404 20366
KGYB 190055Z AUTO 16009G16KT 10SM SCT070 36/22 A2986 RMK AO2 T03620222
KGYB 190155Z AUTO 17010G17KT 150V210 10SM CLR 35/23 A2988 RMK AO2 T03450230
KGYB 190255Z AUTO 17008G15KT 10SM CLR 33/24 A2990 RMK AO2 T03270238
KGYB 190355Z AUTO 17007KT 10SM CLR 31/24 A2993 RMK AO2 T03110240
KGYB 190455Z AUTO 18004KT 10SM CLR 30/25 A2994 RMK AO2 T02980250



Page loaded:  05:27 UTC  |   10:27 PM Pacific  |   11:27 PM Mountain  |   12:27 AM Central  |   01:27 AM Eastern

 

ADVISORIES

FORECASTS

FORECASTS

OBSERVATIONS

USER TOOLS

ABOUT US